createdAt,value
2023-05-09T00:00:07.073Z,0.00
2023-05-09T00:01:07.039Z,0.00
2023-05-09T00:02:07.124Z,0.00
2023-05-09T00:03:07.035Z,0.00
2023-05-09T00:04:07.029Z,0.00
2023-05-09T00:05:06.997Z,0.00
2023-05-09T00:06:06.990Z,0.00
2023-05-09T00:07:06.971Z,0.00
2023-05-09T00:08:06.983Z,0.00
2023-05-09T00:09:06.945Z,0.00
2023-05-09T00:10:06.928Z,0.00
2023-05-09T00:11:06.906Z,0.00
2023-05-09T00:12:06.898Z,0.00
2023-05-09T00:13:06.934Z,0.00
2023-05-09T00:14:06.871Z,0.00
2023-05-09T00:15:06.868Z,0.00
2023-05-09T00:16:06.883Z,0.00
2023-05-09T00:17:06.823Z,0.00
2023-05-09T00:18:06.825Z,0.00
2023-05-09T00:19:06.802Z,0.00
2023-05-09T00:20:06.791Z,0.00
2023-05-09T00:21:06.792Z,0.00
2023-05-09T00:22:06.764Z,0.00
2023-05-09T00:23:06.836Z,0.00
2023-05-09T00:24:06.757Z,0.00
2023-05-09T00:25:06.729Z,0.00
2023-05-09T00:26:06.729Z,0.00
2023-05-09T00:27:06.692Z,0.00
2023-05-09T00:28:06.698Z,0.00
2023-05-09T00:29:06.671Z,0.00
2023-05-09T00:30:06.691Z,0.00
2023-05-09T00:31:06.637Z,0.00
2023-05-09T00:32:06.673Z,0.00
2023-05-09T00:33:06.671Z,0.00
2023-05-09T00:34:06.599Z,0.00
2023-05-09T00:35:06.595Z,0.00
2023-05-09T00:36:06.594Z,0.00
2023-05-09T00:37:06.557Z,0.00
2023-05-09T00:38:06.559Z,0.00
2023-05-09T00:39:06.538Z,0.00
2023-05-09T00:40:06.608Z,0.00
2023-05-09T00:41:06.512Z,0.00
2023-05-09T00:42:06.519Z,0.00
2023-05-09T00:43:06.495Z,0.00
2023-05-09T00:44:06.465Z,0.00
2023-05-09T00:45:06.454Z,0.00
2023-05-09T00:46:06.511Z,0.00
2023-05-09T00:47:06.458Z,0.00
2023-05-09T00:48:06.497Z,0.00
2023-05-09T00:49:06.422Z,0.00
2023-05-09T00:50:06.398Z,0.00
2023-05-09T00:51:06.393Z,0.00
2023-05-09T00:52:06.392Z,0.00
2023-05-09T00:53:06.375Z,0.00
2023-05-09T00:54:09.032Z,0.00
2023-05-09T00:55:06.331Z,0.00
2023-05-09T00:56:06.315Z,0.00
2023-05-09T00:57:06.325Z,0.00
2023-05-09T00:58:06.281Z,0.00
2023-05-09T00:59:06.310Z,0.00
2023-05-09T01:00:06.269Z,0.00
2023-05-09T01:01:06.295Z,0.00
2023-05-09T01:02:06.253Z,0.00
2023-05-09T01:03:06.303Z,0.00
2023-05-09T01:04:06.221Z,0.00
2023-05-09T01:05:06.221Z,0.00
2023-05-09T01:06:06.180Z,0.00
2023-05-09T01:07:06.182Z,0.00
2023-05-09T01:08:06.176Z,0.00
2023-05-09T01:09:06.144Z,0.00
2023-05-09T01:10:06.138Z,0.00
2023-05-09T01:11:06.113Z,0.00
2023-05-09T01:12:06.106Z,0.00
2023-05-09T01:13:06.167Z,0.00
2023-05-09T01:14:06.156Z,0.00
2023-05-09T01:15:06.079Z,0.00
2023-05-09T01:16:06.112Z,0.00
2023-05-09T01:17:06.035Z,0.00
2023-05-09T01:18:06.038Z,0.00
2023-05-09T01:19:06.059Z,0.00
2023-05-09T01:20:05.999Z,0.00
2023-05-09T01:21:06.005Z,0.00
2023-05-09T01:22:05.977Z,0.00
2023-05-09T01:23:05.959Z,0.00
2023-05-09T01:24:05.950Z,0.00
2023-05-09T01:25:05.959Z,0.00
2023-05-09T01:26:05.924Z,0.00
2023-05-09T01:27:05.920Z,0.00
2023-05-09T01:28:05.898Z,0.00
2023-05-09T01:29:05.887Z,0.00
2023-05-09T01:30:05.869Z,0.00
2023-05-09T01:31:05.905Z,0.00
2023-05-09T01:32:05.862Z,0.00
2023-05-09T01:33:05.914Z,0.00
2023-05-09T01:34:05.852Z,0.00
2023-05-09T01:35:05.800Z,0.00
2023-05-09T01:36:05.789Z,0.00
2023-05-09T01:37:05.808Z,0.00
2023-05-09T01:38:05.761Z,0.00
2023-05-09T01:39:05.744Z,0.00
2023-05-09T01:40:05.745Z,0.00
2023-05-09T01:41:05.733Z,0.00
2023-05-09T01:42:05.741Z,0.00
2023-05-09T01:43:05.691Z,0.00
2023-05-09T01:44:05.775Z,0.00
2023-05-09T01:45:05.764Z,0.00
2023-05-09T01:46:05.957Z,0.00
2023-05-09T01:47:05.692Z,0.00
2023-05-09T01:48:05.796Z,0.00
2023-05-09T01:49:05.762Z,0.00
2023-05-09T01:50:05.694Z,0.00
2023-05-09T01:51:05.588Z,0.00
2023-05-09T01:52:05.594Z,0.00
2023-05-09T01:53:05.579Z,0.00
2023-05-09T01:54:05.580Z,0.00
2023-05-09T01:55:05.555Z,0.00
2023-05-09T01:56:05.678Z,0.00
2023-05-09T01:57:05.527Z,0.00
2023-05-09T01:58:05.518Z,0.00
2023-05-09T01:59:05.510Z,0.00
2023-05-09T02:00:05.472Z,0.00
2023-05-09T02:01:05.511Z,0.00
2023-05-09T02:02:05.461Z,0.00
2023-05-09T02:03:05.446Z,0.00
2023-05-09T02:04:05.433Z,0.00
2023-05-09T02:05:05.415Z,0.00
2023-05-09T02:06:05.397Z,0.00
2023-05-09T02:07:05.384Z,0.00
2023-05-09T02:08:05.373Z,0.00
2023-05-09T02:09:05.382Z,0.00
2023-05-09T02:10:05.343Z,0.00
2023-05-09T02:11:05.338Z,0.00
2023-05-09T02:12:05.323Z,0.00
2023-05-09T02:13:05.381Z,0.00
2023-05-09T02:14:05.281Z,0.00
2023-05-09T02:15:05.299Z,0.00
2023-05-09T02:16:05.305Z,0.00
2023-05-09T02:17:05.263Z,0.00
2023-05-09T02:18:05.309Z,0.00
2023-05-09T02:19:05.219Z,0.00
2023-05-09T02:20:05.207Z,0.00
2023-05-09T02:21:05.251Z,0.00
2023-05-09T02:22:05.332Z,0.00
2023-05-09T02:23:05.201Z,0.00
2023-05-09T02:24:05.153Z,0.00
2023-05-09T02:25:05.152Z,0.00
2023-05-09T02:26:05.131Z,0.00
2023-05-09T02:27:05.150Z,0.00
2023-05-09T02:28:05.105Z,0.00
2023-05-09T02:29:05.086Z,0.00
2023-05-09T02:30:05.076Z,0.00
2023-05-09T02:31:05.070Z,0.00
2023-05-09T02:32:05.124Z,0.00
2023-05-09T02:33:05.114Z,0.00
2023-05-09T02:34:05.057Z,0.00
2023-05-09T02:35:05.024Z,0.00
2023-05-09T02:36:04.999Z,0.00
2023-05-09T02:37:04.995Z,0.00
2023-05-09T02:38:04.997Z,0.00
2023-05-09T02:39:05.016Z,0.00
2023-05-09T02:40:04.937Z,0.00
2023-05-09T02:41:04.934Z,0.00
2023-05-09T02:42:04.932Z,0.00
2023-05-09T02:43:04.920Z,0.00
2023-05-09T02:44:04.892Z,0.00
2023-05-09T02:45:04.905Z,0.00
2023-05-09T02:46:04.900Z,0.00
2023-05-09T02:47:04.881Z,0.00
2023-05-09T02:48:07.746Z,0.00
2023-05-09T02:49:04.850Z,0.00
2023-05-09T02:50:04.824Z,0.00
2023-05-09T02:51:04.828Z,0.00
2023-05-09T02:52:04.811Z,0.00
2023-05-09T02:53:04.775Z,0.00
2023-05-09T02:54:04.763Z,0.00
2023-05-09T02:55:04.788Z,0.00
2023-05-09T02:56:04.737Z,0.00
2023-05-09T02:57:04.726Z,0.00
2023-05-09T02:58:13.511Z,0.00
2023-05-09T02:59:04.707Z,0.00
2023-05-09T03:00:04.677Z,0.00
2023-05-09T03:01:04.708Z,0.00
2023-05-09T03:02:04.672Z,0.00
2023-05-09T03:03:04.692Z,0.00
2023-05-09T03:04:04.641Z,0.00
2023-05-09T03:05:04.647Z,0.00
2023-05-09T03:06:04.608Z,0.00
2023-05-09T03:07:04.608Z,0.00
2023-05-09T03:08:04.582Z,0.00
2023-05-09T03:09:04.562Z,0.00
2023-05-09T03:10:04.601Z,0.00
2023-05-09T03:11:04.543Z,0.00
2023-05-09T03:12:04.577Z,0.00
2023-05-09T03:13:04.535Z,0.00
2023-05-09T03:14:04.511Z,0.00
2023-05-09T03:15:04.491Z,0.00
2023-05-09T03:16:04.526Z,0.00
2023-05-09T03:17:04.460Z,0.00
2023-05-09T03:18:04.515Z,0.00
2023-05-09T03:19:04.441Z,0.00
2023-05-09T03:20:04.668Z,0.00
2023-05-09T03:21:04.422Z,0.00
2023-05-09T03:22:04.424Z,0.00
2023-05-09T03:23:04.404Z,0.00
2023-05-09T03:24:04.385Z,0.00
2023-05-09T03:25:04.490Z,0.00
2023-05-09T03:26:04.364Z,0.00
2023-05-09T03:27:04.342Z,0.00
2023-05-09T03:28:04.331Z,0.00
2023-05-09T03:29:04.330Z,0.00
2023-05-09T03:30:04.284Z,0.00
2023-05-09T03:31:04.316Z,0.00
2023-05-09T03:32:04.267Z,0.00
2023-05-09T03:33:04.313Z,0.00
2023-05-09T03:34:04.243Z,0.00
2023-05-09T03:35:04.266Z,0.00
2023-05-09T03:36:04.225Z,0.00
2023-05-09T03:37:04.222Z,0.00
2023-05-09T03:38:04.199Z,0.00
2023-05-09T03:39:04.189Z,0.00
2023-05-09T03:40:04.165Z,0.00
2023-05-09T03:41:04.180Z,0.00
2023-05-09T03:42:04.144Z,0.00
2023-05-09T03:43:04.133Z,0.00
2023-05-09T03:44:04.121Z,0.00
2023-05-09T03:45:04.099Z,0.00
2023-05-09T03:46:04.091Z,0.00
2023-05-09T03:47:04.172Z,0.00
2023-05-09T03:48:04.173Z,0.00
2023-05-09T03:49:04.051Z,5.62
2023-05-09T03:50:04.035Z,5.62
2023-05-09T03:51:04.041Z,5.62
2023-05-09T03:52:04.009Z,5.62
2023-05-09T03:53:04.018Z,5.62
2023-05-09T03:54:03.984Z,5.62
2023-05-09T03:55:03.961Z,5.62
2023-05-09T03:56:03.973Z,5.62
2023-05-09T03:57:03.956Z,11.25
2023-05-09T03:58:03.962Z,11.25
2023-05-09T03:59:03.910Z,11.25
2023-05-09T04:00:03.974Z,11.25
2023-05-09T04:01:03.919Z,11.25
2023-05-09T04:02:03.904Z,16.88
2023-05-09T04:03:03.938Z,16.88
2023-05-09T04:04:03.939Z,16.88
2023-05-09T04:05:03.849Z,22.50
2023-05-09T04:06:03.829Z,22.50
2023-05-09T04:07:03.826Z,22.50
2023-05-09T04:08:03.796Z,22.50
2023-05-09T04:09:03.794Z,22.50
2023-05-09T04:10:03.822Z,22.50
2023-05-09T04:11:03.769Z,28.12
2023-05-09T04:12:03.748Z,28.12
2023-05-09T04:13:03.811Z,28.12
2023-05-09T04:14:03.725Z,28.12
2023-05-09T04:15:03.738Z,22.50
2023-05-09T04:16:03.727Z,22.50
2023-05-09T04:17:03.880Z,16.88
2023-05-09T04:18:03.715Z,16.88
2023-05-09T04:19:03.663Z,16.88
2023-05-09T04:20:03.660Z,16.88
2023-05-09T04:21:03.645Z,16.88
2023-05-09T04:22:03.644Z,16.88
2023-05-09T04:23:03.627Z,16.88
2023-05-09T04:24:03.612Z,16.88
2023-05-09T04:25:03.592Z,16.88
2023-05-09T04:26:03.568Z,16.88
2023-05-09T04:27:03.559Z,16.88
2023-05-09T04:28:03.617Z,16.88
2023-05-09T04:29:03.539Z,22.50
2023-05-09T04:30:03.522Z,22.50
2023-05-09T04:31:03.599Z,22.50
2023-05-09T04:32:03.549Z,28.12
2023-05-09T04:33:03.498Z,28.12
2023-05-09T04:34:03.494Z,28.12
2023-05-09T04:35:03.476Z,33.75
2023-05-09T04:36:03.442Z,33.75
2023-05-09T04:37:03.437Z,33.75
2023-05-09T04:38:03.412Z,33.75
2023-05-09T04:39:03.414Z,39.38
2023-05-09T04:40:03.423Z,39.38
2023-05-09T04:41:03.378Z,45.00
2023-05-09T04:42:03.379Z,50.62
2023-05-09T04:43:03.368Z,56.25
2023-05-09T04:44:03.362Z,56.25
2023-05-09T04:45:03.341Z,61.88
2023-05-09T04:46:03.401Z,61.88
2023-05-09T04:47:03.297Z,67.50
2023-05-09T04:48:03.317Z,73.12
2023-05-09T04:49:03.284Z,78.75
2023-05-09T04:50:03.288Z,84.38
2023-05-09T04:51:03.254Z,90.00
2023-05-09T04:52:03.269Z,95.62
2023-05-09T04:53:03.240Z,101.25
2023-05-09T04:54:03.216Z,106.88
2023-05-09T04:55:03.199Z,106.88
2023-05-09T04:56:03.190Z,112.50
2023-05-09T04:57:16.542Z,112.50
2023-05-09T04:58:03.170Z,112.50
2023-05-09T04:59:03.157Z,118.12
2023-05-09T05:00:03.149Z,123.75
2023-05-09T05:01:03.119Z,129.38
2023-05-09T05:02:03.309Z,129.38
2023-05-09T05:03:03.246Z,129.38
2023-05-09T05:04:03.090Z,123.75
2023-05-09T05:05:11.499Z,123.75
2023-05-09T05:06:03.064Z,118.12
2023-05-09T05:07:03.043Z,112.50
2023-05-09T05:08:03.040Z,106.88
2023-05-09T05:09:03.041Z,106.88
2023-05-09T05:10:03.003Z,112.50
2023-05-09T05:11:03.027Z,118.12
2023-05-09T05:12:04.936Z,129.38
2023-05-09T05:13:03.005Z,135.00
2023-05-09T05:14:02.990Z,135.00
2023-05-09T05:15:02.971Z,135.00
2023-05-09T05:16:02.975Z,135.00
2023-05-09T05:17:02.952Z,135.00
2023-05-09T05:18:03.002Z,140.62
2023-05-09T05:19:02.894Z,140.62
2023-05-09T05:20:02.873Z,146.25
2023-05-09T05:21:02.890Z,151.88
2023-05-09T05:22:02.851Z,157.50
2023-05-09T05:23:02.878Z,157.50
2023-05-09T05:24:02.813Z,151.88
2023-05-09T05:25:02.808Z,157.50
2023-05-09T05:26:02.818Z,163.12
2023-05-09T05:27:02.788Z,163.12
2023-05-09T05:28:02.776Z,168.75
2023-05-09T05:29:02.783Z,174.38
2023-05-09T05:30:02.772Z,185.62
2023-05-09T05:31:02.737Z,185.62
2023-05-09T05:32:02.744Z,191.25
2023-05-09T05:33:02.801Z,196.88
2023-05-09T05:34:02.701Z,196.88
2023-05-09T05:35:02.728Z,202.50
2023-05-09T05:36:02.675Z,219.38
2023-05-09T05:37:02.648Z,225.00
2023-05-09T05:38:02.663Z,225.00
2023-05-09T05:39:02.628Z,225.00
2023-05-09T05:40:02.615Z,230.62
2023-05-09T05:41:02.612Z,236.25
2023-05-09T05:42:02.604Z,241.88
2023-05-09T05:43:02.584Z,253.12
2023-05-09T05:44:02.570Z,253.12
2023-05-09T05:45:02.545Z,258.75
2023-05-09T05:46:02.568Z,264.38
2023-05-09T05:47:02.554Z,281.25
2023-05-09T05:48:02.731Z,315.00
2023-05-09T05:49:02.492Z,331.88
2023-05-09T05:50:02.500Z,320.62
2023-05-09T05:51:02.459Z,309.38
2023-05-09T05:52:02.459Z,303.75
2023-05-09T05:53:02.455Z,309.38
2023-05-09T05:54:02.444Z,331.88
2023-05-09T05:55:02.437Z,326.25
2023-05-09T05:56:02.431Z,331.88
2023-05-09T05:57:02.426Z,337.50
2023-05-09T05:58:02.382Z,331.88
2023-05-09T05:59:02.359Z,326.25
2023-05-09T06:00:02.629Z,331.88
2023-05-09T06:01:02.380Z,331.88
2023-05-09T06:02:02.387Z,337.50
2023-05-09T06:03:02.378Z,348.75
2023-05-09T06:04:02.349Z,348.75
2023-05-09T06:05:02.288Z,354.38
2023-05-09T06:06:02.288Z,348.75
2023-05-09T06:07:02.284Z,343.12
2023-05-09T06:08:02.247Z,343.12
2023-05-09T06:09:02.228Z,343.12
2023-05-09T06:10:02.229Z,348.75
2023-05-09T06:11:02.203Z,365.62
2023-05-09T06:12:02.209Z,382.50
2023-05-09T06:13:02.209Z,388.12
2023-05-09T06:14:02.188Z,376.88
2023-05-09T06:15:02.165Z,382.50
2023-05-09T06:16:14.976Z,393.75
2023-05-09T06:17:02.166Z,405.00
2023-05-09T06:18:02.168Z,421.88
2023-05-09T06:19:02.096Z,438.75
2023-05-09T06:20:02.099Z,489.38
2023-05-09T06:21:02.087Z,540.00
2023-05-09T06:22:02.103Z,579.38
2023-05-09T06:23:02.052Z,607.50
2023-05-09T06:24:08.524Z,635.62
2023-05-09T06:25:02.041Z,663.75
2023-05-09T06:26:02.007Z,736.88
2023-05-09T06:27:02.027Z,815.62
2023-05-09T06:28:01.983Z,810.00
2023-05-09T06:29:01.990Z,765.00
2023-05-09T06:30:08.336Z,759.38
2023-05-09T06:31:02.002Z,770.62
2023-05-09T06:32:01.935Z,781.88
2023-05-09T06:33:01.947Z,787.50
2023-05-09T06:34:01.902Z,765.00
2023-05-09T06:35:01.926Z,720.00
2023-05-09T06:36:01.877Z,675.00
2023-05-09T06:37:01.884Z,680.62
2023-05-09T06:38:01.862Z,691.88
2023-05-09T06:39:01.871Z,714.38
2023-05-09T06:40:01.904Z,725.62
2023-05-09T06:41:01.824Z,765.00
2023-05-09T06:42:01.815Z,781.88
2023-05-09T06:43:01.795Z,793.12
2023-05-09T06:44:01.795Z,798.75
2023-05-09T06:45:01.833Z,781.88
2023-05-09T06:46:01.838Z,736.88
2023-05-09T06:47:01.761Z,675.00
2023-05-09T06:48:01.754Z,613.12
2023-05-09T06:49:01.752Z,590.62
2023-05-09T06:50:01.735Z,635.62
2023-05-09T06:51:01.707Z,708.75
2023-05-09T06:52:01.707Z,804.38
2023-05-09T06:53:01.696Z,838.12
2023-05-09T06:54:01.662Z,804.38
2023-05-09T06:55:01.646Z,731.25
2023-05-09T06:56:01.631Z,669.38
2023-05-09T06:57:01.602Z,630.00
2023-05-09T06:58:01.631Z,601.88
2023-05-09T06:59:01.616Z,607.50
2023-05-09T07:00:01.631Z,641.25
2023-05-09T07:01:01.593Z,663.75
2023-05-09T07:02:01.650Z,720.00
2023-05-09T07:03:01.601Z,826.88
2023-05-09T07:04:01.549Z,956.25
2023-05-09T07:05:01.650Z,1001.25
2023-05-09T07:06:01.509Z,1074.38
2023-05-09T07:07:01.488Z,1181.25
2023-05-09T07:08:01.488Z,1215.00
2023-05-09T07:09:01.464Z,1192.50
2023-05-09T07:10:10.462Z,1085.62
2023-05-09T07:11:01.450Z,759.38
2023-05-09T07:12:01.421Z,562.50
2023-05-09T07:13:01.435Z,455.62
2023-05-09T07:14:01.393Z,427.50
2023-05-09T07:15:01.419Z,438.75
2023-05-09T07:16:01.415Z,489.38
2023-05-09T07:17:18.033Z,534.38
2023-05-09T07:18:01.380Z,506.25
2023-05-09T07:19:01.329Z,466.88
2023-05-09T07:20:01.334Z,478.12
2023-05-09T07:21:01.314Z,511.88
2023-05-09T07:22:01.323Z,562.50
2023-05-09T07:23:01.331Z,607.50
2023-05-09T07:24:01.288Z,663.75
2023-05-09T07:25:01.265Z,675.00
2023-05-09T07:26:01.272Z,708.75
2023-05-09T07:27:01.237Z,731.25
2023-05-09T07:28:01.252Z,731.25
2023-05-09T07:29:01.205Z,765.00
2023-05-09T07:30:01.208Z,759.38
2023-05-09T07:31:01.193Z,759.38
2023-05-09T07:32:01.255Z,787.50
2023-05-09T07:33:01.256Z,815.62
2023-05-09T07:34:01.157Z,826.88
2023-05-09T07:35:01.135Z,849.38
2023-05-09T07:36:01.138Z,815.62
2023-05-09T07:37:01.116Z,753.75
2023-05-09T07:38:01.113Z,691.88
2023-05-09T07:39:01.086Z,613.12
2023-05-09T07:40:01.100Z,556.88
2023-05-09T07:41:01.051Z,534.38
2023-05-09T07:42:01.051Z,540.00
2023-05-09T07:43:01.034Z,573.75
2023-05-09T07:44:01.039Z,613.12
2023-05-09T07:45:00.999Z,618.75
2023-05-09T07:46:01.029Z,635.62
2023-05-09T07:47:00.967Z,675.00
2023-05-09T07:48:01.018Z,742.50
2023-05-09T07:49:00.935Z,832.50
2023-05-09T07:50:00.954Z,905.62
2023-05-09T07:51:00.929Z,967.50
2023-05-09T07:52:00.907Z,1029.38
2023-05-09T07:53:00.916Z,1147.50
2023-05-09T07:54:00.882Z,1254.38
2023-05-09T07:55:00.903Z,1299.38
2023-05-09T07:56:00.929Z,1344.38
2023-05-09T07:57:00.843Z,1333.12
2023-05-09T07:58:00.819Z,1316.25
2023-05-09T07:59:00.828Z,1321.88
2023-05-09T08:00:00.803Z,1344.38
2023-05-09T08:01:00.810Z,1344.38
2023-05-09T08:02:00.834Z,1327.50
2023-05-09T08:03:00.996Z,1310.62
2023-05-09T08:04:00.919Z,1293.75
2023-05-09T08:05:00.813Z,1276.88
2023-05-09T08:06:00.802Z,1372.50
2023-05-09T08:07:00.737Z,1687.50
2023-05-09T08:08:00.741Z,2103.75
2023-05-09T08:09:00.712Z,2435.62
2023-05-09T08:10:00.674Z,2289.38
2023-05-09T08:11:00.661Z,2323.12
2023-05-09T08:12:00.704Z,2503.12
2023-05-09T08:13:00.654Z,3116.25
2023-05-09T08:14:00.642Z,2570.62
2023-05-09T08:15:00.641Z,3515.62
2023-05-09T08:16:00.714Z,2475.00
2023-05-09T08:17:00.597Z,2683.12
2023-05-09T08:18:00.644Z,2711.25
2023-05-09T08:19:00.585Z,2739.38
2023-05-09T08:20:00.611Z,2165.62
2023-05-09T08:21:00.563Z,2064.38
2023-05-09T08:22:00.563Z,2148.75
2023-05-09T08:23:00.541Z,2058.75
2023-05-09T08:24:00.535Z,1946.25
2023-05-09T08:25:00.508Z,1665.00
2023-05-09T08:26:00.588Z,1620.00
2023-05-09T08:27:00.489Z,1867.50
2023-05-09T08:28:00.467Z,2199.38
2023-05-09T08:29:00.461Z,2053.12
2023-05-09T08:30:00.474Z,2070.00
2023-05-09T08:31:00.478Z,3937.50
2023-05-09T08:32:00.417Z,4168.12
2023-05-09T08:33:00.430Z,4111.88
2023-05-09T08:34:00.401Z,2041.88
2023-05-09T08:35:00.398Z,1698.75
2023-05-09T08:36:00.426Z,1378.12
2023-05-09T08:37:00.360Z,1271.25
2023-05-09T08:38:00.352Z,1333.12
2023-05-09T08:39:00.348Z,1378.12
2023-05-09T08:40:00.372Z,1507.50
2023-05-09T08:41:00.318Z,1681.88
2023-05-09T08:42:00.334Z,1732.50
2023-05-09T08:43:00.299Z,1946.25
2023-05-09T08:44:00.288Z,1693.12
2023-05-09T08:45:00.284Z,1496.25
2023-05-09T08:46:00.520Z,1395.00
2023-05-09T08:47:00.431Z,1445.62
2023-05-09T08:48:00.291Z,1400.62
2023-05-09T08:49:00.232Z,1496.25
2023-05-09T08:50:00.214Z,1580.62
2023-05-09T08:51:00.210Z,1591.88
2023-05-09T08:52:00.269Z,1479.38
2023-05-09T08:53:00.182Z,1530.00
2023-05-09T08:54:00.184Z,1524.38
2023-05-09T08:55:00.162Z,1518.75
2023-05-09T08:56:00.159Z,1479.38
2023-05-09T08:57:00.126Z,1361.25
2023-05-09T08:58:00.158Z,1321.88
2023-05-09T08:59:00.139Z,1535.62
2023-05-09T09:00:00.152Z,1704.38
2023-05-09T09:01:00.137Z,2278.12
2023-05-09T09:02:00.172Z,1434.38
2023-05-09T09:03:00.157Z,2081.25
2023-05-09T09:04:00.046Z,1125.00
2023-05-09T09:05:00.095Z,1203.75
2023-05-09T09:06:00.040Z,1237.50
2023-05-09T09:07:00.019Z,1231.88
2023-05-09T09:07:59.997Z,1271.25
2023-05-09T09:08:59.984Z,1288.12
2023-05-09T09:09:59.969Z,1243.12
2023-05-09T09:10:59.951Z,1276.88
2023-05-09T09:11:59.965Z,1805.62
2023-05-09T09:12:59.997Z,1861.88
2023-05-09T09:13:59.921Z,2728.12
2023-05-09T09:14:59.921Z,5130.00
2023-05-09T09:16:00.229Z,5085.00
2023-05-09T09:17:00.007Z,4955.62
2023-05-09T09:18:00.358Z,4421.25
2023-05-09T09:18:59.882Z,3453.75
2023-05-09T09:19:59.862Z,2835.00
2023-05-09T09:20:59.838Z,3009.38
2023-05-09T09:21:59.851Z,4140.00
2023-05-09T09:22:59.845Z,4905.00
2023-05-09T09:23:59.828Z,4050.00
2023-05-09T09:24:59.818Z,4207.50
2023-05-09T09:26:00.255Z,4027.50
2023-05-09T09:26:59.794Z,4044.38
2023-05-09T09:27:59.798Z,3847.50
2023-05-09T09:28:59.771Z,3802.50
2023-05-09T09:29:59.769Z,1670.62
2023-05-09T09:30:59.749Z,3166.88
2023-05-09T09:31:59.778Z,1479.38
2023-05-09T09:32:59.762Z,1400.62
2023-05-09T09:33:59.815Z,1575.00
2023-05-09T09:34:59.749Z,3211.88
2023-05-09T09:35:59.731Z,3330.00
2023-05-09T09:36:59.694Z,3751.88
2023-05-09T09:38:00.204Z,3999.38
2023-05-09T09:38:59.683Z,3735.00
2023-05-09T09:39:59.645Z,4618.12
2023-05-09T09:40:59.647Z,4730.62
2023-05-09T09:41:59.640Z,4747.50
2023-05-09T09:42:59.630Z,4786.88
2023-05-09T09:43:59.658Z,4027.50
2023-05-09T09:44:59.630Z,2615.62
2023-05-09T09:45:59.646Z,2115.00
2023-05-09T09:46:59.593Z,1738.12
2023-05-09T09:47:59.653Z,2593.12
2023-05-09T09:48:59.575Z,4933.12
2023-05-09T09:49:59.590Z,4955.62
2023-05-09T09:50:59.585Z,4961.25
2023-05-09T09:51:59.619Z,4876.88
2023-05-09T09:52:59.542Z,5011.88
2023-05-09T09:53:59.531Z,4910.62
2023-05-09T09:54:59.533Z,2919.38
2023-05-09T09:55:59.535Z,2716.88
2023-05-09T09:56:59.496Z,1333.12
2023-05-09T09:57:59.502Z,1327.50
2023-05-09T09:58:59.494Z,1299.38
2023-05-09T09:59:59.474Z,1265.62
2023-05-09T10:00:59.510Z,1299.38
2023-05-09T10:01:59.455Z,1670.62
2023-05-09T10:02:59.498Z,4899.38
2023-05-09T10:03:59.476Z,2463.75
2023-05-09T10:04:59.410Z,5321.25
2023-05-09T10:05:59.403Z,5546.25
2023-05-09T10:06:59.391Z,4837.50
2023-05-09T10:07:59.464Z,5326.88
2023-05-09T10:08:59.377Z,1856.25
2023-05-09T10:09:59.358Z,2098.12
2023-05-09T10:10:59.353Z,2913.75
2023-05-09T10:11:59.350Z,4933.12
2023-05-09T10:12:59.419Z,4916.25
2023-05-09T10:13:59.403Z,4910.62
2023-05-09T10:14:59.364Z,4933.12
2023-05-09T10:15:59.507Z,3600.00
2023-05-09T10:16:59.470Z,4584.38
2023-05-09T10:17:59.501Z,4567.50
2023-05-09T10:18:59.315Z,4348.12
2023-05-09T10:19:59.306Z,4173.75
2023-05-09T10:20:59.306Z,4123.12
2023-05-09T10:21:59.260Z,2368.12
2023-05-09T10:22:59.258Z,1749.38
2023-05-09T10:23:59.260Z,4359.38
2023-05-09T10:24:59.246Z,4522.50
2023-05-09T10:25:59.300Z,4533.75
2023-05-09T10:26:59.263Z,4410.00
2023-05-09T10:27:59.225Z,4303.12
2023-05-09T10:28:59.213Z,4224.38
2023-05-09T10:29:59.194Z,4005.00
2023-05-09T10:30:59.213Z,4111.88
2023-05-09T10:31:59.176Z,3813.75
2023-05-09T10:32:59.210Z,3886.88
2023-05-09T10:33:59.195Z,4050.00
2023-05-09T10:34:59.130Z,4128.75
2023-05-09T10:35:59.152Z,4123.12
2023-05-09T10:36:59.261Z,3937.50
2023-05-09T10:37:59.143Z,4078.12
2023-05-09T10:38:59.094Z,3988.12
2023-05-09T10:39:59.093Z,4061.25
2023-05-09T10:40:59.102Z,4033.12
2023-05-09T10:41:59.081Z,4196.25
2023-05-09T10:42:59.092Z,4190.62
2023-05-09T10:43:59.066Z,4156.88
2023-05-09T10:44:59.040Z,3808.12
2023-05-09T10:45:59.081Z,4359.38
2023-05-09T10:46:59.107Z,4629.38
2023-05-09T10:47:59.032Z,4556.25
2023-05-09T10:48:59.060Z,4443.75
2023-05-09T10:49:59.019Z,4140.00
2023-05-09T10:50:58.980Z,4280.62
2023-05-09T10:51:59.036Z,1839.38
2023-05-09T10:52:58.985Z,4381.88
2023-05-09T10:53:58.968Z,3481.88
2023-05-09T10:54:58.999Z,4494.38
2023-05-09T10:55:58.990Z,4606.88
2023-05-09T10:56:58.936Z,3155.62
2023-05-09T10:57:58.978Z,3926.25
2023-05-09T10:58:58.917Z,4550.62
2023-05-09T10:59:58.909Z,2030.62
2023-05-09T11:00:58.943Z,1265.62
2023-05-09T11:01:58.943Z,1175.62
2023-05-09T11:02:58.906Z,1153.12
2023-05-09T11:03:58.955Z,1113.75
2023-05-09T11:04:58.865Z,1051.88
2023-05-09T11:05:58.875Z,1096.88
2023-05-09T11:06:58.871Z,1203.75
2023-05-09T11:07:58.838Z,1327.50
2023-05-09T11:08:58.832Z,1361.25
2023-05-09T11:09:58.827Z,1389.38
2023-05-09T11:10:58.809Z,1417.50
2023-05-09T11:11:58.795Z,1316.25
2023-05-09T11:12:58.830Z,1243.12
2023-05-09T11:13:58.786Z,1372.50
2023-05-09T11:14:58.756Z,1890.00
2023-05-09T11:15:58.765Z,4646.25
2023-05-09T11:16:58.728Z,3616.88
2023-05-09T11:17:58.764Z,4657.50
2023-05-09T11:18:58.739Z,4438.12
2023-05-09T11:19:58.722Z,4140.00
2023-05-09T11:20:58.689Z,4185.00
2023-05-09T11:21:58.684Z,4162.50
2023-05-09T11:22:58.685Z,4010.62
2023-05-09T11:23:58.699Z,4128.75
2023-05-09T11:24:58.657Z,4145.62
2023-05-09T11:25:58.656Z,4331.25
2023-05-09T11:26:58.672Z,4263.75
2023-05-09T11:27:58.626Z,4117.50
2023-05-09T11:28:58.700Z,4072.50
2023-05-09T11:29:58.693Z,4100.62
2023-05-09T11:30:58.588Z,4140.00
2023-05-09T11:31:58.683Z,4314.38
2023-05-09T11:32:58.719Z,4336.88
2023-05-09T11:33:58.597Z,4308.75
2023-05-09T11:34:58.580Z,4213.12
2023-05-09T11:35:58.631Z,4117.50
2023-05-09T11:36:58.558Z,3960.00
2023-05-09T11:37:58.551Z,4168.12
2023-05-09T11:38:58.516Z,4201.88
2023-05-09T11:39:58.567Z,4224.38
2023-05-09T11:40:58.496Z,4213.12
2023-05-09T11:41:58.511Z,4246.88
2023-05-09T11:42:58.958Z,4201.88
2023-05-09T11:43:58.482Z,4156.88
2023-05-09T11:44:58.474Z,4241.25
2023-05-09T11:45:58.542Z,4207.50
2023-05-09T11:46:58.446Z,4095.00
2023-05-09T11:47:58.476Z,4241.25
2023-05-09T11:48:58.471Z,4280.62
2023-05-09T11:49:58.450Z,4320.00
2023-05-09T11:50:58.412Z,4263.75
2023-05-09T11:51:58.483Z,4342.50
2023-05-09T11:52:58.406Z,4331.25
2023-05-09T11:53:58.418Z,4230.00
2023-05-09T11:54:58.450Z,4173.75
2023-05-09T11:55:58.364Z,4072.50
2023-05-09T11:56:58.363Z,4027.50
2023-05-09T11:57:58.423Z,4038.75
2023-05-09T11:58:58.343Z,4033.12
2023-05-09T11:59:58.356Z,3988.12
2023-05-09T12:00:58.396Z,3909.38
2023-05-09T12:01:58.378Z,3628.12
2023-05-09T12:02:58.409Z,3611.25
2023-05-09T12:03:58.460Z,3735.00
2023-05-09T12:04:58.289Z,3841.88
2023-05-09T12:05:58.313Z,3903.75
2023-05-09T12:06:58.328Z,3796.88
2023-05-09T12:07:58.265Z,3825.00
2023-05-09T12:08:58.242Z,3819.38
2023-05-09T12:09:58.285Z,3808.12
2023-05-09T12:10:58.242Z,3763.12
2023-05-09T12:11:58.237Z,3735.00
2023-05-09T12:12:58.295Z,3763.12
2023-05-09T12:13:58.212Z,3903.75
2023-05-09T12:14:58.198Z,3931.88
2023-05-09T12:15:58.269Z,3819.38
2023-05-09T12:16:58.191Z,4038.75
2023-05-09T12:17:58.199Z,4111.88
2023-05-09T12:18:58.176Z,4140.00
2023-05-09T12:19:58.149Z,3954.38
2023-05-09T12:20:58.157Z,3324.38
2023-05-09T12:21:58.177Z,3588.75
2023-05-09T12:22:58.126Z,3493.12
2023-05-09T12:23:58.113Z,3723.75
2023-05-09T12:24:58.132Z,3751.88
2023-05-09T12:25:58.114Z,3661.88
2023-05-09T12:26:58.106Z,3307.50
2023-05-09T12:27:58.126Z,2244.38
2023-05-09T12:28:58.082Z,1434.38
2023-05-09T12:29:58.056Z,1338.75
2023-05-09T12:30:58.073Z,1310.62
2023-05-09T12:31:58.049Z,1293.75
2023-05-09T12:32:58.173Z,1288.12
2023-05-09T12:33:58.070Z,1288.12
2023-05-09T12:34:57.997Z,1293.75